Time,TemperatureF,DewpointF,PressureIn,WindDirection,WindDirectionDegrees,WindSpeedMPH,WindSpeedGustMPH,Humidity,HourlyPrecipIn,Conditions,Clouds,dailyrainin,SoftwareType,DateUTC
2013-05-24 00:01:00,78.0,73.5,29.98,East,82,9.2,9.2,86,0.00,CLR,,0.00,WeatherDisplay:10.37,2013-05-24 05:01:00,
2013-05-24 00:06:00,78.1,73.2,29.98,ENE,72,8.1,8.1,85,0.00,CLR,,0.00,WeatherDisplay:10.37,2013-05-24 05:06:00,
2013-05-24 00:11:00,78.0,73.1,29.99,ENE,70,9.2,9.2,85,0.00,CLR,,0.00,WeatherDisplay:10.37,2013-05-24 05:11:00,
2013-05-24 00:16:00,78.0,73.1,29.99,ENE,57,8.1,8.1,85,0.00,CLR,,0.00,WeatherDisplay:10.37,2013-05-24 05:16:00,
2013-05-24 00:21:00,77.9,73.0,29.99,ENE,60,10.0,10.0,85,0.00,CLR,,0.00,WeatherDisplay:10.37,2013-05-24 05:21:00,
2013-05-24 00:26:00,77.9,73.0,29.99,ENE,66,11.5,11.5,85,0.00,CLR,,0.00,WeatherDisplay:10.37,2013-05-24 05:26:00,
2013-05-24 00:31:00,77.7,72.8,29.99,ENE,63,12.7,12.7,85,0.00,CLR,,0.00,WeatherDisplay:10.37,2013-05-24 05:31:00,
2013-05-24 00:36:00,77.6,73.1,29.99,ESE,109,16.1,16.1,86,0.00,CLR,,0.00,WeatherDisplay:10.37,2013-05-24 05:36:00,
2013-05-24 00:41:00,77.5,73.0,29.99,ENE,75,15.0,15.0,86,0.00,CLR,,0.00,WeatherDisplay:10.37,2013-05-24 05:41:00,
2013-05-24 00:46:00,77.4,72.9,29.99,East,85,11.5,11.5,86,0.00,CLR,,0.00,WeatherDisplay:10.37,2013-05-24 05:46:00,
2013-05-24 00:52:00,77.4,72.9,29.99,East,99,15.0,15.0,86,0.00,CLR,,0.00,WeatherDisplay:10.37,2013-05-24 05:52:00,
2013-05-24 00:57:00,77.3,73.1,29.99,ESE,103,11.5,11.5,87,0.00,CLR,,0.00,WeatherDisplay:10.37,2013-05-24 05:57:00,
2013-05-24 01:02:00,77.2,73.0,29.98,ESE,103,15.0,15.0,87,0.00,CLR,,0.00,WeatherDisplay:10.37,2013-05-24 06:02:00,
2013-05-24 01:07:00,77.1,72.9,29.99,ESE,112,9.2,9.2,87,0.00,CLR,,0.00,WeatherDisplay:10.37,2013-05-24 06:07:00,
2013-05-24 01:12:00,77.0,72.8,29.98,ESE,102,11.5,11.5,87,0.00,CLR,,0.00,WeatherDisplay:10.37,2013-05-24 06:12:00,
2013-05-24 01:17:00,76.9,72.7,29.99,East,95,9.2,9.2,87,0.00,CLR,,0.00,WeatherDisplay:10.37,2013-05-24 06:17:00,
2013-05-24 01:22:00,76.8,72.6,29.98,ENE,68,10.4,10.4,87,0.00,CLR,,0.00,WeatherDisplay:10.37,2013-05-24 06:22:00,
2013-05-24 01:27:00,76.8,72.6,29.99,East,100,11.5,11.5,87,0.00,CLR,,0.00,WeatherDisplay:10.37,2013-05-24 06:27:00,
2013-05-24 01:32:00,76.8,72.6,29.99,East,82,15.0,15.0,87,0.00,CLR,,0.00,WeatherDisplay:10.37,2013-05-24 06:32:00,
2013-05-24 01:37:00,76.7,72.5,29.99,East,86,11.5,11.5,87,0.00,CLR,,0.00,WeatherDisplay:10.37,2013-05-24 06:37:00,
2013-05-24 01:42:00,76.7,72.5,29.99,ESE,116,11.5,11.5,87,0.00,CLR,,0.00,WeatherDisplay:10.37,2013-05-24 06:42:00,
2013-05-24 01:47:00,76.6,72.8,29.99,ESE,116,9.2,9.2,88,0.00,CLR,,0.00,WeatherDisplay:10.37,2013-05-24 06:47:00,
2013-05-24 01:52:00,76.5,72.7,29.99,East,94,10.4,10.4,88,0.00,CLR,,0.00,WeatherDisplay:10.37,2013-05-24 06:52:00,
2013-05-24 01:57:00,76.4,72.6,29.99,ESE,121,10.4,10.4,88,0.00,CLR,,0.00,WeatherDisplay:10.37,2013-05-24 06:57:00,
2013-05-24 02:02:00,76.3,72.5,29.99,East,99,12.7,12.7,88,0.00,CLR,,0.00,WeatherDisplay:10.37,2013-05-24 07:02:00,
2013-05-24 02:07:00,76.3,72.5,29.99,East,92,10.4,10.4,88,0.00,CLR,,0.00,WeatherDisplay:10.37,2013-05-24 07:07:00,
2013-05-24 02:12:00,76.1,72.3,29.99,SE,131,10.4,10.4,88,0.00,CLR,,0.00,WeatherDisplay:10.37,2013-05-24 07:12:00,
2013-05-24 02:17:00,76.0,72.5,29.99,ESE,111,6.9,6.9,89,0.00,CLR,,0.00,WeatherDisplay:10.37,2013-05-24 07:17:00,
2013-05-24 02:22:00,75.9,72.4,29.99,ESE,103,8.1,8.1,89,0.00,CLR,,0.00,WeatherDisplay:10.37,2013-05-24 07:22:00,
2013-05-24 02:27:00,75.7,72.2,29.99,ESE,111,8.1,8.1,89,0.00,CLR,,0.00,WeatherDisplay:10.37,2013-05-24 07:27:00,
2013-05-24 02:32:00,75.7,72.6,29.99,ESE,109,9.2,9.2,90,0.00,CLR,,0.00,WeatherDisplay:10.37,2013-05-24 07:32:00,
2013-05-24 02:37:00,75.6,72.5,29.99,East,91,3.5,3.5,90,0.00,CLR,,0.00,WeatherDisplay:10.37,2013-05-24 07:37:00,
2013-05-24 02:42:00,75.6,72.5,29.99,East,96,8.1,8.1,90,0.00,CLR,,0.00,WeatherDisplay:10.37,2013-05-24 07:42:00,
2013-05-24 02:47:00,75.6,72.5,29.99,ESE,114,5.8,5.8,90,0.00,CLR,,0.00,WeatherDisplay:10.37,2013-05-24 07:47:00,
2013-05-24 02:52:00,75.6,72.5,29.99,East,86,5.8,5.8,90,0.00,CLR,,0.00,WeatherDisplay:10.37,2013-05-24 07:52:00,
2013-05-24 02:57:00,75.5,72.4,29.99,East,89,3.5,3.5,90,0.00,CLR,,0.00,WeatherDisplay:10.37,2013-05-24 07:57:00,
2013-05-24 03:02:00,75.5,72.4,29.99,East,93,3.5,3.5,90,0.00,CLR,,0.00,WeatherDisplay:10.37,2013-05-24 08:02:00,
2013-05-24 03:07:00,75.5,72.4,29.98,ESE,111,4.6,4.6,90,0.00,CLR,,0.00,WeatherDisplay:10.37,2013-05-24 08:07:00,
2013-05-24 03:12:00,75.5,72.4,29.99,East,79,4.6,4.6,90,0.00,CLR,,0.00,WeatherDisplay:10.37,2013-05-24 08:12:00,
2013-05-24 03:17:00,75.6,72.5,29.99,ENE,78,4.6,4.6,90,0.00,CLR,,0.00,WeatherDisplay:10.37,2013-05-24 08:17:00,
2013-05-24 03:22:00,75.6,72.5,29.99,East,85,5.8,5.8,90,0.00,CLR,,0.00,WeatherDisplay:10.37,2013-05-24 08:22:00,
2013-05-24 03:27:00,75.6,72.5,29.99,East,98,4.6,4.6,90,0.00,CLR,,0.00,WeatherDisplay:10.37,2013-05-24 08:27:00,
2013-05-24 03:32:00,75.6,72.5,30.00,East,89,1.1,0.0,90,0.00,CLR,,0.00,WeatherDisplay:10.37,2013-05-24 08:32:00,
2013-05-24 03:37:00,75.6,72.5,29.99,East,82,2.3,2.3,90,0.00,CLR,,0.00,WeatherDisplay:10.37,2013-05-24 08:37:00,
2013-05-24 03:42:00,75.6,72.5,29.99,ESE,102,3.5,3.5,90,0.00,CLR,,0.00,WeatherDisplay:10.37,2013-05-24 08:42:00,
2013-05-24 03:47:00,75.5,72.4,29.99,East,94,2.3,2.3,90,0.00,CLR,,0.00,WeatherDisplay:10.37,2013-05-24 08:47:00,
2013-05-24 03:52:00,75.5,72.4,29.99,East,86,2.3,0.0,90,0.00,CLR,,0.00,WeatherDisplay:10.37,2013-05-24 08:52:00,
2013-05-24 03:57:00,75.4,72.3,29.99,ESE,103,0.0,0.0,90,0.00,CLR,,0.00,WeatherDisplay:10.37,2013-05-24 08:57:00,
2013-05-24 04:02:00,75.4,72.3,29.98,East,86,3.5,3.5,90,0.00,CLR,,0.00,WeatherDisplay:10.37,2013-05-24 09:02:00,
2013-05-24 04:07:00,75.4,72.6,29.98,ENE,70,3.5,0.0,91,0.00,CLR,,0.00,WeatherDisplay:10.37,2013-05-24 09:07:00,
2013-05-24 04:12:00,75.3,72.5,29.97,East,83,3.5,0.0,91,0.00,CLR,,0.00,WeatherDisplay:10.37,2013-05-24 09:12:00,
2013-05-24 04:17:00,75.3,72.5,29.97,East,83,4.6,4.6,91,0.00,CLR,,0.00,WeatherDisplay:10.37,2013-05-24 09:17:00,
2013-05-24 04:22:00,75.1,72.3,29.97,East,94,0.0,0.0,91,0.00,CLR,,0.00,WeatherDisplay:10.37,2013-05-24 09:22:00,
2013-05-24 04:27:00,75.0,72.2,29.97,ESE,109,1.1,0.0,91,0.00,CLR,,0.00,WeatherDisplay:10.37,2013-05-24 09:27:00,
2013-05-24 04:32:00,74.9,72.1,29.97,East,87,2.3,2.3,91,0.00,CLR,,0.00,WeatherDisplay:10.37,2013-05-24 09:32:00,
2013-05-24 04:37:00,74.9,72.4,29.97,East,89,0.0,0.0,92,0.00,CLR,,0.00,WeatherDisplay:10.37,2013-05-24 09:37:00,
2013-05-24 04:42:00,74.8,72.3,29.97,East,96,0.0,0.0,92,0.00,CLR,,0.00,WeatherDisplay:10.37,2013-05-24 09:42:00,
2013-05-24 04:47:00,74.6,72.1,29.97,ENE,75,1.1,1.1,92,0.00,CLR,,0.00,WeatherDisplay:10.37,2013-05-24 09:47:00,
2013-05-24 04:52:00,74.5,72.0,29.97,East,84,1.0,0.0,92,0.00,CLR,,0.00,WeatherDisplay:10.37,2013-05-24 09:52:00,
2013-05-24 04:57:00,74.4,71.9,29.97,East,86,1.1,1.1,92,0.00,CLR,,0.00,WeatherDisplay:10.37,2013-05-24 09:57:00,
2013-05-24 05:02:00,74.3,71.8,29.97,ENE,75,1.1,0.0,92,0.00,CLR,,0.00,WeatherDisplay:10.37,2013-05-24 10:02:00,
2013-05-24 05:07:00,74.2,71.7,29.97,East,79,1.1,0.0,92,0.00,CLR,,0.00,WeatherDisplay:10.37,2013-05-24 10:07:00,
2013-05-24 05:12:00,74.1,71.9,29.97,East,94,1.1,0.0,93,0.00,CLR,,0.00,WeatherDisplay:10.37,2013-05-24 10:12:00,
2013-05-24 05:17:00,74.0,71.8,29.97,East,91,0.0,0.0,93,0.00,CLR,,0.00,WeatherDisplay:10.37,2013-05-24 10:17:00,
2013-05-24 05:22:00,74.0,71.8,29.97,ENE,65,1.1,0.0,93,0.00,CLR,,0.00,WeatherDisplay:10.37,2013-05-24 10:22:00,
2013-05-24 05:27:00,74.0,71.8,29.97,NE,56,1.1,0.0,93,0.00,CLR,,0.00,WeatherDisplay:10.37,2013-05-24 10:27:00,
2013-05-24 05:32:00,74.1,71.9,29.98,ENE,60,0.0,0.0,93,0.00,CLR,,0.00,WeatherDisplay:10.37,2013-05-24 10:32:00,
2013-05-24 05:37:00,74.1,71.9,29.97,ENE,63,0.0,0.0,93,0.00,CLR,,0.00,WeatherDisplay:10.37,2013-05-24 10:37:00,
2013-05-24 05:42:00,74.2,72.0,29.97,SE,126,0.0,0.0,93,0.00,CLR,,0.00,WeatherDisplay:10.37,2013-05-24 10:42:00,
2013-05-24 05:47:00,74.2,72.0,29.97,ESE,118,0.0,0.0,93,0.00,CLR,,0.00,WeatherDisplay:10.37,2013-05-24 10:47:00,
2013-05-24 05:52:00,74.2,72.0,29.98,East,79,0.0,0.0,93,0.00,CLR,,0.00,WeatherDisplay:10.37,2013-05-24 10:52:00,
2013-05-24 05:57:00,74.2,72.0,29.98,East,79,0.0,0.0,93,0.00,CLR,,0.00,WeatherDisplay:10.37,2013-05-24 10:57:00,
2013-05-24 06:02:00,74.2,72.0,29.98,ENE,74,0.0,0.0,93,0.00,CLR,,0.00,WeatherDisplay:10.37,2013-05-24 11:02:00,
2013-05-24 06:07:00,74.2,72.0,29.99,ENE,65,0.0,0.0,93,0.00,CLR,,0.00,WeatherDisplay:10.37,2013-05-24 11:07:00,
2013-05-24 06:12:00,74.3,72.1,29.99,NNE,32,0.0,0.0,93,0.00,CLR,,0.00,WeatherDisplay:10.37,2013-05-24 11:12:00,
2013-05-24 06:17:00,74.3,72.1,29.99,North,1,0.0,0.0,93,0.00,CLR,,0.00,WeatherDisplay:10.37,2013-05-24 11:17:00,
2013-05-24 06:22:00,74.4,72.2,29.99,NNE,25,0.0,0.0,93,0.00,CLR,,0.00,WeatherDisplay:10.37,2013-05-24 11:22:00,
2013-05-24 06:27:00,74.5,72.3,29.99,NE,34,0.0,0.0,93,0.00,CLR,,0.00,WeatherDisplay:10.37,2013-05-24 11:27:00,
2013-05-24 06:32:00,74.5,72.3,30.00,North,359,1.1,1.1,93,0.00,CLR,,0.00,WeatherDisplay:10.37,2013-05-24 11:32:00,
2013-05-24 06:37:00,74.6,72.4,30.00,NNE,13,0.0,0.0,93,0.00,CLR,,0.00,WeatherDisplay:10.37,2013-05-24 11:37:00,
2013-05-24 06:42:00,74.7,72.5,30.00,ENE,61,0.0,0.0,93,0.00,CLR,,0.00,WeatherDisplay:10.37,2013-05-24 11:42:00,
2013-05-24 06:47:00,74.7,72.5,29.99,NE,56,1.1,0.0,93,0.00,CLR,,0.00,WeatherDisplay:10.37,2013-05-24 11:47:00,
2013-05-24 06:52:00,74.8,72.6,29.99,NNE,30,1.1,1.1,93,0.00,CLR,,0.00,WeatherDisplay:10.37,2013-05-24 11:52:00,
2013-05-24 06:57:00,74.8,72.3,29.99,ENE,67,1.1,1.1,92,0.00,CLR,,0.00,WeatherDisplay:10.37,2013-05-24 11:57:00,
2013-05-24 07:02:00,74.9,72.4,29.99,ENE,77,1.1,1.1,92,0.00,CLR,,0.00,WeatherDisplay:10.37,2013-05-24 12:02:00,
2013-05-24 07:07:00,74.9,72.4,29.99,East,88,1.1,1.1,92,0.00,CLR,,0.00,WeatherDisplay:10.37,2013-05-24 12:07:00,
2013-05-24 07:12:00,74.9,72.4,29.99,ENE,78,1.1,1.3,92,0.00,CLR,,0.00,WeatherDisplay:10.37,2013-05-24 12:12:00,
2013-05-24 07:17:00,74.9,72.7,29.99,East,87,1.1,0.0,93,0.00,CLR,,0.00,WeatherDisplay:10.37,2013-05-24 12:17:00,
2013-05-24 07:22:00,74.9,72.4,30.00,ESE,103,1.1,1.1,92,0.00,CLR,,0.00,WeatherDisplay:10.37,2013-05-24 12:22:00,
2013-05-24 07:27:00,75.0,72.5,30.00,ESE,102,1.1,1.1,92,0.00,CLR,,0.00,WeatherDisplay:10.37,2013-05-24 12:27:00,
2013-05-24 07:32:00,75.0,72.5,30.00,East,85,1.1,1.1,92,0.00,CLR,,0.00,WeatherDisplay:10.37,2013-05-24 12:32:00,
2013-05-24 07:37:00,75.1,72.6,30.00,ENE,77,1.1,1.1,92,0.00,CLR,,0.00,WeatherDisplay:10.37,2013-05-24 12:37:00,
2013-05-24 07:42:00,75.1,72.6,30.00,NE,47,2.3,2.3,92,0.00,CLR,,0.00,WeatherDisplay:10.37,2013-05-24 12:42:00,
2013-05-24 07:47:00,75.2,72.7,30.00,East,84,2.3,2.3,92,0.00,CLR,,0.00,WeatherDisplay:10.37,2013-05-24 12:47:00,
2013-05-24 07:52:00,75.3,72.8,30.01,ESE,117,1.1,1.1,92,0.00,CLR,,0.00,WeatherDisplay:10.37,2013-05-24 12:52:00,
2013-05-24 07:57:00,75.4,72.9,30.01,East,96,0.0,0.4,92,0.00,CLR,,0.00,WeatherDisplay:10.37,2013-05-24 12:57:00,
2013-05-24 08:02:00,75.5,73.0,30.01,East,79,2.3,2.3,92,0.00,CLR,,0.00,WeatherDisplay:10.37,2013-05-24 13:02:00,
2013-05-24 08:07:00,75.6,73.1,30.02,ESE,115,2.0,2.0,92,0.00,CLR,,0.00,WeatherDisplay:10.37,2013-05-24 13:07:00,
2013-05-24 08:12:00,75.7,73.2,30.02,ESE,114,2.3,2.3,92,0.00,CLR,,0.00,WeatherDisplay:10.37,2013-05-24 13:12:00,
2013-05-24 08:17:00,75.8,73.3,30.02,SE,129,1.0,1.0,92,0.00,CLR,,0.00,WeatherDisplay:10.37,2013-05-24 13:17:00,
2013-05-24 08:22:00,75.9,73.1,30.02,ESE,109,2.3,2.3,91,0.00,CLR,,0.00,WeatherDisplay:10.37,2013-05-24 13:22:00,
2013-05-24 08:27:00,76.0,73.2,30.02,SE,131,3.5,3.5,91,0.00,CLR,,0.00,WeatherDisplay:10.37,2013-05-24 13:27:00,
2013-05-24 08:32:00,76.2,73.4,30.02,SE,141,3.5,3.5,91,0.00,CLR,,0.00,WeatherDisplay:10.37,2013-05-24 13:32:00,
2013-05-24 08:37:00,76.3,73.5,30.03,ESE,117,3.0,3.0,91,0.00,CLR,,0.00,WeatherDisplay:10.37,2013-05-24 13:37:00,
2013-05-24 08:42:00,76.4,73.6,30.03,ESE,121,2.3,0.0,91,0.00,CLR,,0.00,WeatherDisplay:10.37,2013-05-24 13:42:00,
2013-05-24 08:47:00,76.5,73.3,30.03,ESE,105,4.6,4.6,90,0.00,CLR,,0.00,WeatherDisplay:10.37,2013-05-24 13:47:00,
2013-05-24 08:52:00,76.6,73.4,30.03,ESE,105,6.9,6.9,90,0.00,CLR,,0.00,WeatherDisplay:10.37,2013-05-24 13:52:00,
2013-05-24 08:57:00,76.8,73.6,30.03,East,90,4.6,4.6,90,0.00,CLR,,0.00,WeatherDisplay:10.37,2013-05-24 13:57:00,
2013-05-24 09:02:00,77.0,73.8,30.04,East,94,3.5,3.5,90,0.00,CLR,,0.00,WeatherDisplay:10.37,2013-05-24 14:02:00,
2013-05-24 09:07:00,77.1,73.6,30.04,SE,135,8.1,8.1,89,0.00,CLR,,0.00,WeatherDisplay:10.37,2013-05-24 14:07:00,
2013-05-24 09:12:00,77.2,73.4,30.05,ESE,105,6.9,6.9,88,0.00,CLR,,0.00,WeatherDisplay:10.37,2013-05-24 14:12:00,
2013-05-24 09:17:00,77.3,73.5,30.06,SE,138,9.2,9.2,88,0.00,CLR,,0.00,WeatherDisplay:10.37,2013-05-24 14:17:00,
2013-05-24 09:22:00,77.4,73.6,30.05,SE,124,8.1,8.1,88,0.00,CLR,,0.00,WeatherDisplay:10.37,2013-05-24 14:22:00,
2013-05-24 09:27:00,77.5,73.7,30.05,SE,133,5.8,5.8,88,0.00,CLR,,0.00,WeatherDisplay:10.37,2013-05-24 14:27:00,
2013-05-24 09:32:00,77.7,73.9,30.06,SE,131,3.5,3.7,88,0.00,CLR,,0.00,WeatherDisplay:10.37,2013-05-24 14:32:00,
2013-05-24 09:37:00,77.8,74.0,30.06,SE,144,4.6,4.6,88,0.00,CLR,,0.00,WeatherDisplay:10.37,2013-05-24 14:37:00,
2013-05-24 09:42:00,77.9,73.7,30.06,South,169,9.2,9.2,87,0.00,CLR,,0.00,WeatherDisplay:10.37,2013-05-24 14:42:00,
2013-05-24 09:47:00,78.1,73.9,30.06,SSE,152,8.1,8.1,87,0.00,CLR,,0.00,WeatherDisplay:10.37,2013-05-24 14:47:00,
2013-05-24 09:52:00,78.3,73.8,30.06,SE,134,5.0,5.0,86,0.00,CLR,,0.00,WeatherDisplay:10.37,2013-05-24 14:52:00,
2013-05-24 09:57:00,78.3,73.8,30.06,ESE,109,8.1,8.1,86,0.00,CLR,,0.00,WeatherDisplay:10.37,2013-05-24 14:57:00,
2013-05-24 10:02:00,78.3,73.4,30.07,SE,138,6.9,6.9,85,0.00,CLR,,0.00,WeatherDisplay:10.37,2013-05-24 15:02:00,
2013-05-24 10:07:00,78.3,73.4,30.06,ESE,118,6.9,6.9,85,0.00,CLR,,0.00,WeatherDisplay:10.37,2013-05-24 15:07:00,
2013-05-24 10:12:00,78.2,73.3,30.06,SSE,160,9.2,9.2,85,0.00,CLR,,0.00,WeatherDisplay:10.37,2013-05-24 15:12:00,
2013-05-24 10:17:00,78.3,73.4,30.06,ESE,121,9.2,9.2,85,0.00,CLR,,0.00,WeatherDisplay:10.37,2013-05-24 15:17:00,
2013-05-24 10:22:00,78.5,73.6,30.07,SE,145,11.5,11.5,85,0.00,CLR,,0.00,WeatherDisplay:10.37,2013-05-24 15:22:00,
2013-05-24 10:27:00,78.6,73.7,30.08,SE,129,5.8,5.8,85,0.00,CLR,,0.00,WeatherDisplay:10.37,2013-05-24 15:27:00,
2013-05-24 10:32:00,78.6,73.7,30.07,SSE,150,5.8,5.8,85,0.00,CLR,,0.00,WeatherDisplay:10.37,2013-05-24 15:32:00,
2013-05-24 10:37:00,78.6,73.7,30.07,ESE,112,8.1,8.1,85,0.00,CLR,,0.00,WeatherDisplay:10.37,2013-05-24 15:37:00,
2013-05-24 10:42:00,78.7,73.8,30.07,SE,133,9.2,9.2,85,0.00,CLR,,0.00,WeatherDisplay:10.37,2013-05-24 15:42:00,
2013-05-24 10:47:00,78.6,73.7,30.07,ESE,115,6.9,6.9,85,0.00,CLR,,0.00,WeatherDisplay:10.37,2013-05-24 15:47:00,
2013-05-24 10:52:00,78.3,73.8,30.07,SE,129,5.8,5.8,86,0.00,CLR,,0.00,WeatherDisplay:10.37,2013-05-24 15:52:00,
2013-05-24 10:57:00,77.9,73.7,30.07,SE,142,4.6,4.6,87,0.00,CLR,,0.00,WeatherDisplay:10.37,2013-05-24 15:57:00,
2013-05-24 11:02:00,77.8,74.0,30.07,ESE,103,4.0,4.0,88,0.00,CLR,,0.00,WeatherDisplay:10.37,2013-05-24 16:02:00,
2013-05-24 11:07:00,77.7,73.9,30.07,ESE,122,4.6,4.6,88,0.00,CLR,,0.00,WeatherDisplay:10.37,2013-05-24 16:07:00,
2013-05-24 11:12:00,77.8,74.0,30.07,East,81,3.5,3.5,88,0.00,CLR,,0.00,WeatherDisplay:10.37,2013-05-24 16:12:00,
2013-05-24 11:17:00,77.9,74.1,30.07,ENE,72,5.8,5.8,88,0.00,CLR,,0.00,WeatherDisplay:10.37,2013-05-24 16:17:00,
2013-05-24 11:22:00,78.1,74.3,30.06,East,101,4.6,4.6,88,0.00,CLR,,0.00,WeatherDisplay:10.37,2013-05-24 16:22:00,
2013-05-24 11:27:00,78.1,73.6,30.06,ESE,111,6.9,6.9,86,0.00,CLR,,0.00,WeatherDisplay:10.37,2013-05-24 16:27:00,
2013-05-24 11:32:00,78.3,74.1,30.06,SE,129,3.5,3.5,87,0.00,CLR,,0.00,WeatherDisplay:10.37,2013-05-24 16:32:00,
2013-05-24 11:37:00,78.4,73.9,30.07,SE,127,4.6,4.6,86,0.00,CLR,,0.00,WeatherDisplay:10.37,2013-05-24 16:37:00,
2013-05-24 11:42:00,78.5,74.0,30.06,ESE,113,5.8,5.8,86,0.00,CLR,,0.00,WeatherDisplay:10.37,2013-05-24 16:42:00,
2013-05-24 11:47:00,78.7,74.2,30.06,ESE,115,7.0,7.0,86,0.00,CLR,,0.00,WeatherDisplay:10.37,2013-05-24 16:47:00,
2013-05-24 11:52:00,78.9,74.4,30.06,ESE,116,5.8,5.8,86,0.00,CLR,,0.00,WeatherDisplay:10.37,2013-05-24 16:52:00,
2013-05-24 11:57:00,79.1,74.2,30.05,ESE,118,6.0,6.0,85,0.00,CLR,,0.00,WeatherDisplay:10.37,2013-05-24 16:57:00,
2013-05-24 12:02:00,79.1,74.2,30.05,ESE,109,6.9,6.9,85,0.00,CLR,,0.00,WeatherDisplay:10.37,2013-05-24 17:02:00,
2013-05-24 12:07:00,79.3,74.4,30.05,ESE,117,9.2,9.2,85,0.00,CLR,,0.00,WeatherDisplay:10.37,2013-05-24 17:07:00,
2013-05-24 12:12:00,79.3,74.0,30.05,ESE,115,9.2,9.2,84,0.00,CLR,,0.00,WeatherDisplay:10.37,2013-05-24 17:12:00,
2013-05-24 12:17:00,79.7,74.4,30.05,SE,139,5.8,5.8,84,0.00,CLR,,0.00,WeatherDisplay:10.37,2013-05-24 17:17:00,
2013-05-24 12:22:00,79.9,74.3,30.05,SE,127,8.1,8.1,83,0.00,CLR,,0.00,WeatherDisplay:10.37,2013-05-24 17:22:00,
2013-05-24 12:27:00,80.0,74.0,30.05,ESE,108,10.4,10.4,82,0.00,CLR,,0.00,WeatherDisplay:10.37,2013-05-24 17:27:00,
2013-05-24 12:32:00,80.3,74.3,30.04,SE,145,6.9,6.9,82,0.00,CLR,,0.00,WeatherDisplay:10.37,2013-05-24 17:32:00,
2013-05-24 12:37:00,80.3,73.9,30.04,SE,133,8.1,8.1,81,0.00,CLR,,0.00,WeatherDisplay:10.37,2013-05-24 17:37:00,
2013-05-24 12:42:00,80.4,74.4,30.04,SE,135,3.5,3.7,82,0.00,CLR,,0.00,WeatherDisplay:10.37,2013-05-24 17:42:00,
2013-05-24 12:47:00,80.4,74.0,30.04,ESE,112,9.2,9.2,81,0.00,CLR,,0.00,WeatherDisplay:10.37,2013-05-24 17:47:00,
2013-05-24 12:52:00,80.4,73.7,30.04,ENE,70,10.4,10.4,80,0.00,CLR,,0.00,WeatherDisplay:10.37,2013-05-24 17:52:00,
2013-05-24 12:57:00,80.3,73.9,30.04,ESE,116,11.5,11.5,81,0.00,CLR,,0.00,WeatherDisplay:10.37,2013-05-24 17:57:00,
2013-05-24 13:02:00,80.3,73.6,30.04,ESE,121,9.2,9.2,80,0.00,CLR,,0.00,WeatherDisplay:10.37,2013-05-24 18:02:00,
2013-05-24 13:07:00,80.2,73.8,30.04,SE,129,5.8,5.8,81,0.00,CLR,,0.00,WeatherDisplay:10.37,2013-05-24 18:07:00,
2013-05-24 13:12:00,80.2,73.8,30.03,SE,134,3.5,3.5,81,0.00,CLR,,0.00,WeatherDisplay:10.37,2013-05-24 18:12:00,
2013-05-24 13:17:00,80.1,73.7,30.03,SE,127,10.4,10.4,81,0.00,CLR,,0.00,WeatherDisplay:10.37,2013-05-24 18:17:00,
2013-05-24 13:22:00,79.9,73.5,30.03,ESE,110,8.1,8.1,81,0.00,CLR,,0.00,WeatherDisplay:10.37,2013-05-24 18:22:00,
2013-05-24 13:27:00,79.6,73.6,30.02,ESE,119,6.9,6.9,82,0.00,CLR,,0.00,WeatherDisplay:10.37,2013-05-24 18:27:00,
2013-05-24 13:32:00,79.4,73.8,30.02,East,101,4.6,4.6,83,0.02,RA,,0.03,WeatherDisplay:10.37,2013-05-24 18:32:00,
2013-05-24 13:37:00,79.0,73.7,30.02,SE,131,5.0,5.0,84,0.04,RA,,0.04,WeatherDisplay:10.37,2013-05-24 18:37:00,
2013-05-24 13:42:00,78.4,73.5,30.03,SSE,151,8.1,8.1,85,0.07,RA,,0.09,WeatherDisplay:10.37,2013-05-24 18:42:00,
2013-05-24 13:47:00,74.6,68.7,30.03,NW,308,13.8,13.8,82,0.27,RA,,0.29,WeatherDisplay:10.37,2013-05-24 18:47:00,
2013-05-24 13:52:00,71.2,67.5,30.02,WSW,257,8.1,8.1,88,0.45,RA,,0.46,WeatherDisplay:10.37,2013-05-24 18:52:00,
2013-05-24 13:57:00,69.7,67.0,30.02,WNW,288,12.7,12.7,91,0.68,RA,,0.73,WeatherDisplay:10.37,2013-05-24 18:57:00,
2013-05-24 14:02:00,68.8,66.7,30.02,WNW,302,13.8,13.8,93,0.85,RA,,0.85,WeatherDisplay:10.37,2013-05-24 19:02:00,
2013-05-24 14:07:00,68.6,66.8,30.03,NNW,340,10.4,10.4,94,0.89,RA,,0.89,WeatherDisplay:10.37,2013-05-24 19:07:00,
2013-05-24 14:12:00,68.5,66.7,30.05,WNW,292,8.0,8.0,94,1.06,RA,,1.08,WeatherDisplay:10.37,2013-05-24 19:12:00,
2013-05-24 14:17:00,68.3,66.5,30.03,WNW,298,13.8,13.8,94,1.41,RA,,1.43,WeatherDisplay:10.37,2013-05-24 19:17:00,
2013-05-24 14:22:00,68.1,66.6,30.03,WNW,288,13.8,13.8,95,1.65,RA,,1.69,WeatherDisplay:10.37,2013-05-24 19:22:00,
2013-05-24 14:27:00,68.1,66.6,30.02,West,276,9.2,9.2,95,1.96,RA,,2.00,WeatherDisplay:10.37,2013-05-24 19:27:00,
2013-05-24 14:32:00,68.2,66.7,30.03,WNW,290,12.7,12.7,95,2.22,RA,,2.28,WeatherDisplay:10.37,2013-05-24 19:32:00,
2013-05-24 14:37:00,68.6,67.4,30.02,SW,218,5.8,5.8,96,2.56,RA,,2.64,WeatherDisplay:10.37,2013-05-24 19:37:00,
2013-05-24 14:42:00,69.6,68.4,30.02,West,278,6.9,6.9,96,2.63,RA,,2.70,WeatherDisplay:10.37,2013-05-24 19:42:00,
2013-05-24 14:47:00,69.9,68.7,30.02,NE,44,5.8,5.8,96,2.58,RA,,2.87,WeatherDisplay:10.37,2013-05-24 19:47:00,
2013-05-24 14:52:00,69.6,68.4,30.03,NE,45,5.8,5.8,96,2.54,RA,,2.99,WeatherDisplay:10.37,2013-05-24 19:52:00,
2013-05-24 14:57:00,69.7,68.5,30.03,WSW,256,1.1,1.1,96,2.36,RA,,3.05,WeatherDisplay:10.37,2013-05-24 19:57:00,
2013-05-24 15:02:00,70.0,68.8,30.03,NNW,335,0.0,0.0,96,2.21,RA,,3.06,WeatherDisplay:10.37,2013-05-24 20:02:00,
2013-05-24 15:07:00,69.9,68.7,30.02,North,1,3.5,3.5,96,2.19,RA,,3.08,WeatherDisplay:10.37,2013-05-24 20:07:00,
2013-05-24 15:12:00,69.8,68.3,30.02,NE,34,0.0,0.0,95,2.03,RA,,3.09,WeatherDisplay:10.37,2013-05-24 20:12:00,
2013-05-24 15:17:00,69.9,68.7,30.02,ENE,75,5.8,5.8,96,1.71,RA,,3.12,WeatherDisplay:10.37,2013-05-24 20:17:00,
2013-05-24 15:22:00,69.8,68.6,30.01,NNW,339,3.5,3.5,96,1.57,RA,,3.22,WeatherDisplay:10.37,2013-05-24 20:22:00,
2013-05-24 15:27:00,70.1,68.9,30.01,NNW,348,0.0,0.0,96,1.26,RA,,3.22,WeatherDisplay:10.37,2013-05-24 20:27:00,
2013-05-24 15:32:00,70.3,69.1,30.01,North,350,0.0,0.0,96,0.98,,,3.22,WeatherDisplay:10.37,2013-05-24 20:32:00,
2013-05-24 15:37:00,70.3,69.1,30.01,North,356,2.3,2.3,96,0.62,CLR,,3.22,WeatherDisplay:10.37,2013-05-24 20:37:00,
2013-05-24 15:42:00,70.7,69.5,30.01,ENE,58,1.1,0.0,96,0.52,CLR,,3.22,WeatherDisplay:10.37,2013-05-24 20:42:00,
2013-05-24 15:47:00,70.7,69.5,30.00,NE,38,3.5,3.5,96,0.37,CLR,,3.22,WeatherDisplay:10.37,2013-05-24 20:47:00,
2013-05-24 15:52:00,70.9,69.7,30.00,East,81,3.5,3.5,96,0.23,CLR,,3.22,WeatherDisplay:10.37,2013-05-24 20:52:00,
2013-05-24 15:57:00,70.8,69.6,30.00,East,98,2.3,2.3,96,0.18,CLR,,3.22,WeatherDisplay:10.37,2013-05-24 20:57:00,
2013-05-24 16:02:00,70.7,69.5,30.00,ESE,114,1.1,0.0,96,0.16,CLR,,3.22,WeatherDisplay:10.37,2013-05-24 21:02:00,
2013-05-24 16:07:00,70.6,69.4,30.00,ESE,113,0.0,0.0,96,0.15,RA,,3.23,WeatherDisplay:10.37,2013-05-24 21:07:00,
2013-05-24 16:12:00,70.6,69.4,30.00,ESE,117,1.1,1.1,96,0.15,RA,,3.24,WeatherDisplay:10.37,2013-05-24 21:12:00,
2013-05-24 16:17:00,70.6,69.4,30.00,SE,126,1.1,0.0,96,0.13,RA,,3.25,WeatherDisplay:10.37,2013-05-24 21:17:00,
2013-05-24 16:22:00,70.6,69.4,30.01,SE,131,0.0,0.0,96,0.04,RA,,3.26,WeatherDisplay:10.37,2013-05-24 21:22:00,
2013-05-24 16:27:00,70.5,69.3,30.01,SE,124,2.3,2.3,96,0.07,RA,,3.30,WeatherDisplay:10.37,2013-05-24 21:27:00,
2013-05-24 16:32:00,70.6,69.4,30.01,East,87,3.5,3.5,96,0.09,RA,,3.31,WeatherDisplay:10.37,2013-05-24 21:32:00,
2013-05-24 16:37:00,70.7,69.5,30.00,East,81,2.3,2.3,96,0.11,RA,,3.33,WeatherDisplay:10.37,2013-05-24 21:37:00,
2013-05-24 16:42:00,70.7,69.5,30.01,SSE,160,3.5,4.3,96,0.13,RA,,3.35,WeatherDisplay:10.37,2013-05-24 21:42:00,
2013-05-24 16:47:00,70.6,69.4,30.02,SSE,162,9.2,9.2,96,0.15,RA,,3.37,WeatherDisplay:10.37,2013-05-24 21:47:00,
2013-05-24 16:52:00,70.6,69.4,30.02,SSE,154,5.8,5.8,96,0.16,RA,,3.38,WeatherDisplay:10.37,2013-05-24 21:52:00,
2013-05-24 16:57:00,70.5,69.3,30.01,SSE,154,4.6,4.6,96,0.18,RA,,3.40,WeatherDisplay:10.37,2013-05-24 21:57:00,
2013-05-24 17:02:00,70.5,69.3,30.01,East,91,3.5,3.5,96,0.19,RA,,3.42,WeatherDisplay:10.37,2013-05-24 22:02:00,
2013-05-24 17:07:00,70.6,69.4,30.01,East,85,5.8,5.8,96,0.20,RA,,3.43,WeatherDisplay:10.37,2013-05-24 22:07:00,
2013-05-24 17:12:00,70.5,69.3,30.01,ESE,113,4.6,4.6,96,0.20,RA,,3.44,WeatherDisplay:10.37,2013-05-24 22:12:00,
2013-05-24 17:17:00,70.6,69.4,30.01,East,87,6.9,6.9,96,0.20,RA,,3.45,WeatherDisplay:10.37,2013-05-24 22:17:00,
2013-05-24 17:22:00,70.5,69.3,30.01,ESE,105,6.9,6.9,96,0.20,RA,,3.47,WeatherDisplay:10.37,2013-05-24 22:22:00,
2013-05-24 17:27:00,70.5,69.3,30.01,East,91,4.6,4.6,96,0.18,RA,,3.47,WeatherDisplay:10.37,2013-05-24 22:27:00,
2013-05-24 17:32:00,70.5,69.3,30.01,ENE,77,5.8,5.8,96,0.17,RA,,3.48,WeatherDisplay:10.37,2013-05-24 22:32:00,
2013-05-24 17:37:00,70.6,69.4,30.01,East,79,3.5,3.5,96,0.15,RA,,3.48,WeatherDisplay:10.37,2013-05-24 22:37:00,
2013-05-24 17:42:00,70.6,69.4,30.01,ESE,103,3.5,3.5,96,0.16,RA,,3.49,WeatherDisplay:10.37,2013-05-24 22:42:00,
2013-05-24 17:47:00,70.7,69.5,30.01,ESE,103,0.0,0.0,96,0.13,RA,,3.49,WeatherDisplay:10.37,2013-05-24 22:47:00,
2013-05-24 17:52:00,70.6,69.4,30.00,ENE,57,0.0,0.0,96,0.12,,,3.49,WeatherDisplay:10.37,2013-05-24 22:52:00,
2013-05-24 17:57:00,70.5,69.3,30.00,SE,135,4.6,4.6,96,0.11,CLR,,3.49,WeatherDisplay:10.37,2013-05-24 22:57:00,
2013-05-24 18:02:00,70.3,69.1,30.00,East,84,5.8,5.8,96,0.10,RA,,3.50,WeatherDisplay:10.37,2013-05-24 23:02:00,
2013-05-24 18:07:00,70.3,69.1,30.00,East,99,2.3,2.3,96,0.08,RA,,3.50,WeatherDisplay:10.37,2013-05-24 23:07:00,
2013-05-24 18:12:00,70.2,69.0,30.00,ESE,117,3.5,3.5,96,0.07,,,3.50,WeatherDisplay:10.37,2013-05-24 23:12:00,
2013-05-24 18:17:00,70.1,68.9,30.00,ESE,111,2.3,2.3,96,0.06,CLR,,3.50,WeatherDisplay:10.37,2013-05-24 23:17:00,
2013-05-24 18:22:00,70.1,68.9,30.00,SE,138,1.1,1.1,96,0.04,CLR,,3.50,WeatherDisplay:10.37,2013-05-24 23:22:00,
2013-05-24 18:27:00,70.1,68.9,30.00,SSE,150,0.0,0.0,96,0.03,CLR,,3.50,WeatherDisplay:10.37,2013-05-24 23:27:00,
2013-05-24 18:32:00,69.9,68.7,30.00,SSE,150,0.0,0.0,96,0.02,CLR,,3.50,WeatherDisplay:10.37,2013-05-24 23:32:00,
2013-05-24 18:37:00,69.7,68.5,30.01,SSE,150,0.0,0.0,96,0.02,CLR,,3.50,WeatherDisplay:10.37,2013-05-24 23:37:00,
2013-05-24 18:42:00,69.6,68.4,30.01,NNE,30,2.3,2.3,96,0.01,CLR,,3.50,WeatherDisplay:10.37,2013-05-24 23:42:00,
2013-05-24 18:47:00,69.8,68.6,30.02,NE,44,2.3,2.3,96,0.01,CLR,,3.50,WeatherDisplay:10.37,2013-05-24 23:47:00,
2013-05-24 18:52:00,70.1,68.9,30.02,NE,45,1.1,1.1,96,0.01,CLR,,3.50,WeatherDisplay:10.37,2013-05-24 23:52:00,
2013-05-24 18:57:00,69.9,68.7,30.02,NE,48,3.5,3.5,96,0.01,CLR,,3.50,WeatherDisplay:10.37,2013-05-24 23:57:00,
2013-05-24 19:02:00,70.0,68.8,30.02,NE,36,4.6,4.6,96,0.00,CLR,,3.50,WeatherDisplay:10.37,2013-05-25 00:02:00,
2013-05-24 19:07:00,70.3,69.1,30.02,NE,56,3.5,3.5,96,0.00,CLR,,3.51,WeatherDisplay:10.37,2013-05-25 00:07:00,
2013-05-24 19:12:00,70.5,69.3,30.01,ENE,70,4.6,4.6,96,0.01,RA,,3.51,WeatherDisplay:10.37,2013-05-25 00:12:00,
2013-05-24 19:17:00,70.2,69.0,30.01,ENE,65,5.8,5.8,96,0.01,RA,,3.51,WeatherDisplay:10.37,2013-05-25 00:17:00,
2013-05-24 19:22:00,70.3,69.1,30.00,NE,44,3.5,3.5,96,0.01,CLR,,3.51,WeatherDisplay:10.37,2013-05-25 00:22:00,
2013-05-24 19:27:00,70.3,69.1,30.00,NE,56,7.0,7.0,96,0.01,CLR,,3.51,WeatherDisplay:10.37,2013-05-25 00:27:00,
2013-05-24 19:32:00,70.4,69.2,30.00,ENE,64,4.6,4.6,96,0.01,CLR,,3.51,WeatherDisplay:10.37,2013-05-25 00:32:00,
2013-05-24 19:37:00,70.4,69.2,30.00,ENE,59,3.5,3.5,96,0.01,CLR,,3.51,WeatherDisplay:10.37,2013-05-25 00:37:00,
2013-05-24 19:42:00,70.3,69.1,30.00,East,80,5.8,5.8,96,0.01,CLR,,3.51,WeatherDisplay:10.37,2013-05-25 00:42:00,
2013-05-24 19:47:00,70.1,68.9,30.00,ENE,63,6.9,6.9,96,0.01,CLR,,3.51,WeatherDisplay:10.37,2013-05-25 00:47:00,
2013-05-24 19:52:00,70.1,68.9,29.99,ENE,70,3.5,3.5,96,0.01,CLR,,3.51,WeatherDisplay:10.37,2013-05-25 00:52:00,
2013-05-24 19:57:00,69.8,68.6,29.99,East,81,6.9,6.9,96,0.02,RA,,3.52,WeatherDisplay:10.37,2013-05-25 00:57:00,
2013-05-24 20:02:00,69.8,68.6,29.99,East,89,6.9,6.9,96,0.02,RA,,3.52,WeatherDisplay:10.37,2013-05-25 01:02:00,
2013-05-24 20:07:00,69.8,68.6,29.99,East,86,8.1,8.1,96,0.02,,,3.52,WeatherDisplay:10.37,2013-05-25 01:07:00,
2013-05-24 20:12:00,69.8,68.6,29.99,East,79,5.8,5.8,96,0.01,CLR,,3.52,WeatherDisplay:10.37,2013-05-25 01:12:00,
2013-05-24 20:17:00,69.7,68.5,30.00,East,85,6.9,6.9,96,0.01,CLR,,3.52,WeatherDisplay:10.37,2013-05-25 01:17:00,
2013-05-24 20:22:00,69.8,68.6,30.00,East,82,3.5,3.5,96,0.01,CLR,,3.52,WeatherDisplay:10.37,2013-05-25 01:22:00,
2013-05-24 20:27:00,69.7,68.5,30.00,East,86,4.6,4.6,96,0.01,CLR,,3.52,WeatherDisplay:10.37,2013-05-25 01:27:00,
2013-05-24 20:32:00,69.6,68.4,30.00,East,85,3.5,3.5,96,0.01,CLR,,3.52,WeatherDisplay:10.37,2013-05-25 01:32:00,
2013-05-24 20:37:00,69.6,68.4,30.00,NE,46,2.3,2.3,96,0.01,CLR,,3.52,WeatherDisplay:10.37,2013-05-25 01:37:00,
2013-05-24 20:42:00,69.5,68.3,30.00,NE,39,1.1,1.1,96,0.01,CLR,,3.52,WeatherDisplay:10.37,2013-05-25 01:42:00,
2013-05-24 20:47:00,69.6,68.4,30.00,NW,312,2.3,2.3,96,0.01,CLR,,3.52,WeatherDisplay:10.37,2013-05-25 01:47:00,
2013-05-24 20:52:00,69.6,68.4,30.01,WNW,301,3.5,3.5,96,0.01,CLR,,3.52,WeatherDisplay:10.37,2013-05-25 01:52:00,
2013-05-24 20:57:00,69.6,68.4,30.01,North,6,1.1,1.1,96,0.00,CLR,,3.52,WeatherDisplay:10.37,2013-05-25 01:57:00,
2013-05-24 21:02:00,69.5,68.3,30.01,NNE,12,4.0,4.0,96,0.00,CLR,,3.52,WeatherDisplay:10.37,2013-05-25 02:02:00,
2013-05-24 21:07:00,69.5,68.3,30.01,NE,37,3.5,3.5,96,0.00,CLR,,3.52,WeatherDisplay:10.37,2013-05-25 02:07:00,
2013-05-24 21:12:00,69.6,68.4,30.01,NE,46,3.5,3.5,96,0.00,CLR,,3.52,WeatherDisplay:10.37,2013-05-25 02:12:00,
2013-05-24 21:17:00,69.7,68.5,30.01,NNE,29,3.5,3.5,96,0.00,CLR,,3.52,WeatherDisplay:10.37,2013-05-25 02:17:00,
2013-05-24 21:22:00,69.8,68.6,30.01,NE,34,3.5,3.5,96,0.00,CLR,,3.52,WeatherDisplay:10.37,2013-05-25 02:22:00,
2013-05-24 21:27:00,69.8,68.6,30.01,NE,43,5.8,5.8,96,0.00,CLR,,3.52,WeatherDisplay:10.37,2013-05-25 02:27:00,
2013-05-24 21:32:00,69.9,68.7,30.02,NNW,345,3.5,3.5,96,0.00,CLR,,3.52,WeatherDisplay:10.37,2013-05-25 02:32:00,
2013-05-24 21:37:00,70.0,68.8,30.03,NE,54,3.5,3.5,96,0.00,CLR,,3.52,WeatherDisplay:10.37,2013-05-25 02:37:00,
2013-05-24 21:42:00,70.1,68.9,30.03,North,360,1.1,1.1,96,0.00,CLR,,3.52,WeatherDisplay:10.37,2013-05-25 02:42:00,
2013-05-24 21:47:00,70.2,69.0,30.03,North,357,1.1,1.1,96,0.00,CLR,,3.52,WeatherDisplay:10.37,2013-05-25 02:47:00,
2013-05-24 21:52:00,70.3,69.1,30.03,North,8,2.3,2.3,96,0.00,CLR,,3.52,WeatherDisplay:10.37,2013-05-25 02:52:00,
2013-05-24 21:57:00,70.3,69.1,30.04,NNE,12,1.1,1.1,96,0.00,CLR,,3.52,WeatherDisplay:10.37,2013-05-25 02:57:00,
2013-05-24 22:02:00,70.6,69.4,30.04,North,351,0.0,0.0,96,0.00,CLR,,3.52,WeatherDisplay:10.37,2013-05-25 03:02:00,
2013-05-24 22:07:00,70.6,69.1,30.04,NE,46,1.1,0.0,95,0.00,CLR,,3.52,WeatherDisplay:10.37,2013-05-25 03:07:00,
2013-05-24 22:12:00,70.7,69.2,30.04,North,8,0.0,0.0,95,0.00,CLR,,3.52,WeatherDisplay:10.37,2013-05-25 03:12:00,
2013-05-24 22:17:00,70.8,69.3,30.05,North,356,0.0,0.0,95,0.00,CLR,,3.52,WeatherDisplay:10.37,2013-05-25 03:17:00,
2013-05-24 22:22:00,70.9,69.4,30.05,NNW,334,1.0,1.0,95,0.00,CLR,,3.52,WeatherDisplay:10.37,2013-05-25 03:22:00,
2013-05-24 22:27:00,71.0,69.5,30.05,NNE,32,1.1,0.0,95,0.00,CLR,,3.52,WeatherDisplay:10.37,2013-05-25 03:27:00,
2013-05-24 22:32:00,71.1,69.6,30.05,NNE,25,1.1,1.1,95,0.00,CLR,,3.52,WeatherDisplay:10.37,2013-05-25 03:32:00,
2013-05-24 22:37:00,71.2,69.7,30.06,NE,36,1.1,1.1,95,0.00,CLR,,3.52,WeatherDisplay:10.37,2013-05-25 03:37:00,
2013-05-24 22:42:00,71.3,69.8,30.06,NNE,32,2.3,2.3,95,0.00,CLR,,3.52,WeatherDisplay:10.37,2013-05-25 03:42:00,
2013-05-24 22:47:00,71.4,69.9,30.06,NE,41,2.3,2.3,95,0.00,CLR,,3.52,WeatherDisplay:10.37,2013-05-25 03:47:00,
2013-05-24 22:52:00,71.5,70.0,30.06,NE,47,3.5,3.5,95,0.00,CLR,,3.52,WeatherDisplay:10.37,2013-05-25 03:52:00,
2013-05-24 22:57:00,71.5,70.0,30.06,NNE,13,4.6,4.6,95,0.00,CLR,,3.52,WeatherDisplay:10.37,2013-05-25 03:57:00,
2013-05-24 23:01:00,71.5,69.7,30.06,ENE,70,6.9,6.9,94,0.00,CLR,,3.52,WeatherDisplay:10.37,2013-05-25 04:01:00,
2013-05-24 23:06:00,71.5,69.7,30.07,East,87,5.8,5.8,94,0.00,CLR,,3.52,WeatherDisplay:10.37,2013-05-25 04:06:00,
2013-05-24 23:11:00,71.6,69.8,30.06,NW,319,3.5,3.5,94,0.00,CLR,,3.52,WeatherDisplay:10.37,2013-05-25 04:11:00,
2013-05-24 23:16:00,71.7,69.9,30.06,ENE,72,4.0,4.0,94,0.00,CLR,,3.52,WeatherDisplay:10.37,2013-05-25 04:16:00,
2013-05-24 23:21:00,71.7,69.9,30.07,North,352,4.6,4.6,94,0.00,CLR,,3.52,WeatherDisplay:10.37,2013-05-25 04:21:00,
2013-05-24 23:26:00,71.8,70.0,30.07,NE,48,3.5,3.5,94,0.00,CLR,,3.52,WeatherDisplay:10.37,2013-05-25 04:26:00,
2013-05-24 23:31:00,71.9,70.1,30.07,NNE,32,4.6,4.6,94,0.00,CLR,,3.52,WeatherDisplay:10.37,2013-05-25 04:31:00,
2013-05-24 23:36:00,71.9,70.1,30.07,ENE,60,4.6,4.6,94,0.00,CLR,,3.52,WeatherDisplay:10.37,2013-05-25 04:36:00,
2013-05-24 23:41:00,71.8,70.0,30.07,NNE,13,3.5,3.5,94,0.00,CLR,,3.52,WeatherDisplay:10.37,2013-05-25 04:41:00,
2013-05-24 23:46:00,71.8,70.0,30.07,North,5,4.6,4.6,94,0.00,CLR,,3.52,WeatherDisplay:10.37,2013-05-25 04:46:00,
2013-05-24 23:51:00,71.7,69.9,30.07,NNE,21,3.5,3.5,94,0.00,CLR,,3.52,WeatherDisplay:10.37,2013-05-25 04:51:00,
2013-05-24 23:56:00,71.6,69.8,30.06,NE,43,4.6,4.6,94,0.00,CLR,,3.52,WeatherDisplay:10.37,2013-05-25 04:56:00,